Decoded Metar for EPPO (POZNAN in POLAND) (IATA:POZ) | Meteo·Mobile Aviation Weather
aviador You're here:

EPPO Decoded Metar

POZNAN in POLAND
Report Time2019-01-18 00:00:00
UTC Time2019-01-18 00:25:04
Flight Rules mvfr MVFR
Wind270° at 14 kt
W.Decomp.*RWY 28: 13.6 kt HW 3.4 kt LCW
W.Rank270° ranks 2
Current wind is above 270° avg. (9.3)
Visibility9999 m
Phenomena:Light Rain
Clouds:Broken 011 Hf
Expected CloudBase > 400 ft AGL from Temp-Dew spread
Ceiling1,100 ft
Temp02°C (ISA -12)
Dew Point01°C (93% RH)
AAT-4.9°C
QNH1001 hPa
Density Alt-702 ft
Elevation302 ft
Report Wrong Elevation
Raw Report
EPPO 180000Z 27014KT 9999 -RA BKN011 02/01 Q1001=

Extra information for EPPO:More info

Metar Taf Metar & Taf Last 4 Metars F.Rules Stats Wind Profile Meteogram Temp Stats Airport Information Weather charts Add Link Nearby VenuesMetar ALERT Operation Metar Decoded Social comments